createdAt,value
2022-09-24T00:02:05.516Z,86.30
2022-09-24T00:04:36.967Z,86.82
2022-09-24T00:07:06.815Z,87.35
2022-09-24T00:09:36.485Z,88.33
2022-09-24T00:12:06.378Z,88.71
2022-09-24T00:14:36.078Z,89.00
2022-09-24T00:17:05.785Z,89.01
2022-09-24T00:19:35.511Z,89.16
2022-09-24T00:22:05.474Z,89.46
2022-09-24T00:24:53.028Z,89.79
2022-09-24T00:27:23.885Z,89.60
2022-09-24T00:29:53.921Z,89.55
2022-09-24T00:32:25.445Z,89.84
2022-09-24T00:34:56.044Z,89.93
2022-09-24T00:37:25.939Z,89.89
2022-09-24T00:39:56.068Z,90.05
2022-09-24T00:42:26.681Z,90.17
2022-09-24T00:44:57.126Z,90.58
2022-09-24T00:47:37.574Z,90.83
2022-09-24T00:50:10.269Z,90.76
2022-09-24T00:52:48.622Z,90.69
2022-09-24T00:55:21.056Z,90.96
2022-09-24T00:57:55.702Z,90.94
2022-09-24T01:00:26.878Z,91.26
2022-09-24T01:03:03.306Z,91.60
2022-09-24T01:05:32.758Z,89.98
2022-09-24T01:08:02.503Z,91.41
2022-09-24T01:10:50.590Z,91.84
2022-09-24T01:13:23.547Z,91.65
2022-09-24T01:16:09.564Z,91.81
2022-09-24T01:19:08.934Z,91.69
2022-09-24T01:21:41.502Z,92.29
2022-09-24T01:24:37.105Z,92.59
2022-09-24T01:27:29.996Z,92.29
2022-09-24T01:30:12.389Z,92.29
2022-09-24T01:32:47.950Z,92.46
2022-09-24T01:35:36.181Z,92.84
2022-09-24T01:38:16.411Z,92.40
2022-09-24T01:40:48.062Z,92.70
2022-09-24T01:43:20.131Z,92.44
2022-09-24T01:45:50.759Z,92.74
2022-09-24T01:48:23.050Z,92.58
2022-09-24T01:51:04.958Z,92.82
2022-09-24T01:53:45.107Z,92.58
2022-09-24T01:56:48.406Z,92.42
2022-09-24T01:59:25.332Z,92.75
2022-09-24T02:02:18.001Z,92.71
2022-09-24T02:04:55.579Z,93.38
2022-09-24T02:07:40.823Z,92.97
2022-09-24T02:10:17.998Z,93.33
2022-09-24T02:12:56.973Z,93.67
2022-09-24T02:15:38.502Z,93.52
2022-09-24T02:18:13.368Z,93.84
2022-09-24T02:20:45.709Z,94.06
2022-09-24T02:23:18.427Z,94.04
2022-09-24T02:26:00.224Z,94.13
2022-09-24T02:28:30.674Z,94.34
2022-09-24T02:31:15.172Z,94.44
2022-09-24T02:34:09.296Z,94.51
2022-09-24T02:36:42.136Z,94.41
2022-09-24T02:39:11.990Z,94.60
2022-09-24T02:41:44.022Z,94.79
2022-09-24T02:44:13.863Z,94.62
2022-09-24T02:46:44.883Z,93.60
2022-09-24T02:49:15.844Z,94.54
2022-09-24T02:51:46.403Z,94.57
2022-09-24T02:54:16.172Z,94.60
2022-09-24T02:56:45.881Z,94.75
2022-09-24T02:59:15.917Z,94.90
2022-09-24T03:01:45.675Z,94.92
2022-09-24T03:04:15.802Z,95.09
2022-09-24T03:06:45.517Z,95.32
2022-09-24T03:09:16.027Z,95.41
2022-09-24T03:11:46.049Z,95.53
2022-09-24T03:14:15.729Z,95.60
2022-09-24T03:16:45.667Z,95.78
2022-09-24T03:19:14.875Z,94.65
2022-09-24T03:21:44.583Z,95.59
2022-09-24T03:24:14.298Z,95.81
2022-09-24T03:26:44.141Z,96.03
2022-09-24T03:29:13.869Z,95.45
2022-09-24T03:31:43.621Z,95.77
2022-09-24T03:34:13.398Z,95.99
2022-09-24T03:36:43.147Z,96.18
2022-09-24T03:39:13.042Z,96.34
2022-09-24T03:41:43.158Z,95.00
2022-09-24T03:44:14.367Z,95.75
2022-09-24T03:46:45.001Z,95.84
2022-09-24T03:49:15.086Z,95.99
2022-09-24T03:51:44.768Z,96.06
2022-09-24T03:54:14.447Z,96.22
2022-09-24T03:56:44.682Z,96.40
2022-09-24T03:59:14.378Z,96.46
2022-09-24T04:01:44.147Z,96.06
2022-09-24T04:04:17.348Z,96.15
2022-09-24T04:06:47.216Z,96.18
2022-09-24T04:09:17.190Z,96.55
2022-09-24T04:11:47.380Z,96.70
2022-09-24T04:14:17.040Z,96.92
2022-09-24T04:16:49.364Z,95.87
2022-09-24T04:19:20.209Z,96.72
2022-09-24T04:21:50.177Z,96.68
2022-09-24T04:24:20.253Z,96.67
2022-09-24T04:26:49.913Z,96.89
2022-09-24T04:29:19.594Z,96.95
2022-09-24T04:31:50.002Z,97.08
2022-09-24T04:34:19.762Z,97.20
2022-09-24T04:36:49.467Z,97.20
2022-09-24T04:39:19.228Z,97.28
2022-09-24T04:41:49.037Z,97.58
2022-09-24T04:44:18.739Z,97.51
2022-09-24T04:46:48.486Z,97.34
2022-09-24T04:49:18.383Z,97.41
2022-09-24T04:51:47.576Z,96.87
2022-09-24T04:54:17.829Z,97.37
2022-09-24T04:56:47.530Z,97.32
2022-09-24T04:59:17.226Z,97.62
2022-09-24T05:01:48.403Z,97.62
2022-09-24T05:04:19.133Z,97.84
2022-09-24T05:06:49.572Z,97.83
2022-09-24T05:09:19.280Z,97.85
2022-09-24T05:11:49.215Z,98.07
2022-09-24T05:14:18.403Z,97.30
2022-09-24T05:16:47.974Z,97.77
2022-09-24T05:19:17.821Z,98.43
2022-09-24T05:21:47.781Z,98.24
2022-09-24T05:24:17.042Z,97.10
2022-09-24T05:27:04.810Z,97.47
2022-09-24T05:29:35.710Z,97.90
2022-09-24T05:32:13.885Z,98.00
2022-09-24T05:34:48.077Z,98.02
2022-09-24T05:37:17.940Z,97.76
2022-09-24T05:39:47.598Z,97.96
2022-09-24T05:42:17.462Z,98.13
2022-09-24T05:44:51.452Z,98.29
2022-09-24T05:47:22.782Z,98.27
2022-09-24T05:49:52.106Z,97.68
2022-09-24T05:52:21.670Z,98.10
2022-09-24T05:54:51.401Z,98.39
2022-09-24T05:57:22.042Z,98.38
2022-09-24T05:59:51.865Z,98.32
2022-09-24T06:02:21.624Z,98.33
2022-09-24T06:04:51.414Z,98.44
2022-09-24T06:07:22.547Z,98.48
2022-09-24T06:09:53.053Z,98.52
2022-09-24T06:12:23.248Z,98.70
2022-09-24T06:14:54.583Z,98.58
2022-09-24T06:17:24.813Z,98.41
2022-09-24T06:19:54.646Z,98.75
2022-09-24T06:22:28.316Z,98.88
2022-09-24T06:24:59.029Z,98.85
2022-09-24T06:27:28.725Z,99.01
2022-09-24T06:29:58.465Z,99.03
2022-09-24T06:32:28.288Z,99.03
2022-09-24T06:34:59.323Z,99.04
2022-09-24T06:37:29.513Z,98.98
2022-09-24T06:39:59.159Z,98.95
2022-09-24T06:42:29.010Z,98.86
2022-09-24T06:44:58.794Z,98.74
2022-09-24T06:47:28.468Z,98.87
2022-09-24T06:49:58.183Z,98.93
2022-09-24T06:52:31.009Z,98.84
2022-09-24T06:55:00.872Z,98.98
2022-09-24T06:57:30.867Z,98.78
2022-09-24T07:00:00.066Z,98.50
2022-09-24T07:02:31.434Z,98.82
2022-09-24T07:05:01.610Z,98.90
2022-09-24T07:07:31.251Z,99.00
2022-09-24T07:10:06.461Z,99.14
2022-09-24T07:12:37.877Z,99.17
2022-09-24T07:15:08.466Z,99.03
2022-09-24T07:17:38.427Z,98.94
2022-09-24T07:20:08.102Z,98.73
2022-09-24T07:22:42.156Z,98.88
2022-09-24T07:25:13.818Z,98.83
2022-09-24T07:27:43.688Z,98.82
2022-09-24T07:30:14.054Z,99.00
2022-09-24T07:32:44.198Z,99.08
2022-09-24T07:35:13.941Z,99.17
2022-09-24T07:37:43.606Z,99.19
2022-09-24T07:40:13.270Z,99.17
2022-09-24T07:42:49.895Z,99.29
2022-09-24T07:45:20.108Z,98.99
2022-09-24T07:47:49.976Z,98.95
2022-09-24T07:50:20.133Z,99.34
2022-09-24T07:52:52.992Z,99.23
2022-09-24T07:55:23.494Z,99.09
2022-09-24T07:57:55.065Z,99.20
2022-09-24T08:00:27.184Z,99.08
2022-09-24T08:02:57.546Z,99.29
2022-09-24T08:05:26.968Z,98.93
2022-09-24T08:07:58.821Z,99.29
2022-09-24T08:10:30.025Z,99.31
2022-09-24T08:13:03.547Z,99.27
2022-09-24T08:15:33.639Z,99.29
2022-09-24T08:18:07.078Z,99.57
2022-09-24T08:20:39.340Z,99.27
2022-09-24T08:23:13.877Z,99.27
2022-09-24T08:25:43.947Z,99.07
2022-09-24T08:28:13.844Z,99.39
2022-09-24T08:30:44.135Z,99.45
2022-09-24T08:33:13.526Z,98.98
2022-09-24T08:35:43.162Z,99.27
2022-09-24T08:38:12.872Z,99.53
2022-09-24T08:40:51.279Z,99.49
2022-09-24T08:43:30.055Z,99.48
2022-09-24T08:46:22.746Z,99.57
2022-09-24T08:48:54.805Z,99.59
2022-09-24T08:51:27.386Z,99.35
2022-09-24T08:54:04.954Z,99.39
2022-09-24T08:56:38.773Z,99.60
2022-09-24T08:59:20.692Z,99.52
2022-09-24T09:01:57.446Z,99.26
2022-09-24T09:04:36.369Z,99.52
2022-09-24T09:07:30.805Z,99.37
2022-09-24T09:10:11.740Z,99.41
2022-09-24T09:12:49.987Z,99.47
2022-09-24T09:15:37.940Z,99.72
2022-09-24T09:18:26.190Z,99.55
2022-09-24T09:21:06.324Z,99.43
2022-09-24T09:24:03.688Z,99.31
2022-09-24T09:26:33.796Z,99.26
2022-09-24T09:29:03.513Z,99.52
2022-09-24T09:31:56.564Z,99.52
2022-09-24T09:34:52.216Z,99.83
2022-09-24T09:37:43.019Z,99.48
2022-09-24T09:40:31.571Z,99.35
2022-09-24T09:43:04.820Z,99.32
2022-09-24T09:45:41.198Z,99.16
2022-09-24T09:48:15.302Z,99.51
2022-09-24T09:51:00.506Z,99.15
2022-09-24T09:53:34.361Z,99.20
2022-09-24T09:56:08.664Z,99.10
2022-09-24T09:58:47.093Z,99.11
2022-09-24T10:01:21.258Z,99.28
2022-09-24T10:03:51.865Z,99.13
2022-09-24T10:06:30.987Z,99.10
2022-09-24T10:09:18.618Z,98.71
2022-09-24T10:11:49.179Z,98.13
2022-09-24T10:14:22.810Z,97.85
2022-09-24T10:16:57.571Z,97.71
2022-09-24T10:19:30.243Z,97.81
2022-09-24T10:22:08.747Z,97.59
2022-09-24T10:24:43.605Z,97.22
2022-09-24T10:27:38.879Z,97.11
2022-09-24T10:30:36.602Z,96.15
2022-09-24T10:33:09.829Z,95.32
2022-09-24T10:35:40.152Z,94.45
2022-09-24T10:38:26.209Z,94.36
2022-09-24T10:41:00.188Z,93.17
2022-09-24T10:43:30.415Z,91.93
2022-09-24T10:46:17.537Z,92.81
2022-09-24T10:49:04.359Z,84.74
2022-09-24T10:52:25.846Z,81.09
2022-09-24T10:55:19.425Z,82.64
2022-09-24T10:58:10.155Z,82.44
2022-09-24T11:01:00.277Z,82.01
2022-09-24T11:03:54.629Z,73.47
2022-09-24T11:06:39.486Z,74.84
2022-09-24T11:09:27.250Z,76.98
2022-09-24T11:12:06.506Z,65.08
2022-09-24T11:14:54.310Z,57.57
2022-09-24T11:17:52.692Z,55.77
2022-09-24T11:20:28.983Z,59.90
2022-09-24T11:23:11.871Z,57.98
2022-09-24T11:26:09.011Z,57.45
2022-09-24T11:29:07.461Z,55.88
2022-09-24T11:32:08.118Z,55.09
2022-09-24T11:35:01.197Z,53.44
2022-09-24T11:37:47.300Z,54.01
2022-09-24T11:40:47.802Z,56.38
2022-09-24T11:43:38.491Z,57.83
2022-09-24T11:46:11.345Z,57.43
2022-09-24T11:49:15.395Z,63.78
2022-09-24T11:51:58.896Z,57.26
2022-09-24T11:54:42.481Z,56.87
2022-09-24T11:57:23.297Z,54.05
2022-09-24T12:00:01.933Z,57.69
2022-09-24T12:02:42.774Z,52.78
2022-09-24T12:05:42.029Z,58.99
2022-09-24T12:08:26.016Z,56.04
2022-09-24T12:11:15.504Z,57.49
2022-09-24T12:13:54.274Z,60.07
2022-09-24T12:16:28.493Z,58.52
2022-09-24T12:19:33.313Z,58.99
2022-09-24T12:22:05.265Z,56.37
2022-09-24T12:24:40.574Z,55.08
2022-09-24T12:27:17.332Z,55.68
2022-09-24T12:30:23.090Z,56.89
2022-09-24T12:33:07.046Z,52.12
2022-09-24T12:35:59.226Z,54.37
2022-09-24T12:38:44.127Z,49.90
2022-09-24T12:41:26.049Z,53.50
2022-09-24T12:44:02.305Z,53.12
2022-09-24T12:46:34.981Z,52.16
2022-09-24T12:49:05.349Z,54.63
2022-09-24T12:51:40.451Z,48.82
2022-09-24T12:54:28.981Z,51.37
2022-09-24T12:57:11.229Z,51.45
2022-09-24T12:59:54.940Z,52.88
2022-09-24T13:02:44.987Z,49.21
2022-09-24T13:05:29.586Z,47.48
2022-09-24T13:08:01.532Z,45.72
2022-09-24T13:10:40.525Z,49.66
2022-09-24T13:13:33.907Z,43.80
2022-09-24T13:16:20.896Z,47.21
2022-09-24T13:19:01.054Z,47.64
2022-09-24T13:21:32.646Z,46.50
2022-09-24T13:24:13.204Z,48.72
2022-09-24T13:26:43.072Z,45.16
2022-09-24T13:29:27.700Z,47.98
2022-09-24T13:32:04.036Z,41.14
2022-09-24T13:34:35.136Z,44.67
2022-09-24T13:37:29.729Z,47.01
2022-09-24T13:40:08.406Z,43.06
2022-09-24T13:43:06.994Z,42.95
2022-09-24T13:45:40.423Z,38.72
2022-09-24T13:48:38.596Z,42.52
2022-09-24T13:51:14.522Z,39.90
2022-09-24T13:53:57.597Z,39.90
2022-09-24T13:56:27.850Z,40.18
2022-09-24T13:59:17.343Z,41.00
2022-09-24T14:01:48.287Z,40.77
2022-09-24T14:04:19.685Z,38.45
2022-09-24T14:06:55.460Z,44.79
2022-09-24T14:09:32.705Z,41.69
2022-09-24T14:12:17.168Z,42.08
2022-09-24T14:14:52.786Z,37.92
2022-09-24T14:17:22.855Z,39.10
2022-09-24T14:19:58.309Z,36.92
2022-09-24T14:22:35.503Z,40.47
2022-09-24T14:25:17.302Z,40.56
2022-09-24T14:27:52.463Z,38.45
2022-09-24T14:30:31.977Z,38.04
2022-09-24T14:33:06.655Z,36.70
2022-09-24T14:35:39.868Z,38.32
2022-09-24T14:38:32.380Z,36.07
2022-09-24T14:41:10.066Z,36.92
2022-09-24T14:43:51.263Z,39.33
2022-09-24T14:46:28.873Z,34.87
2022-09-24T14:49:21.433Z,36.04
2022-09-24T14:52:01.471Z,36.76
2022-09-24T14:54:36.102Z,35.02
2022-09-24T14:57:14.080Z,33.87
2022-09-24T14:59:44.519Z,33.61
2022-09-24T15:02:26.375Z,39.86
2022-09-24T15:05:05.657Z,38.25
2022-09-24T15:07:37.542Z,34.62
2022-09-24T15:10:08.100Z,32.03
2022-09-24T15:12:45.269Z,37.89
2022-09-24T15:15:19.313Z,34.15
2022-09-24T15:17:50.161Z,32.27
2022-09-24T15:20:20.291Z,38.04
2022-09-24T15:22:49.975Z,33.49
2022-09-24T15:25:19.825Z,32.78
2022-09-24T15:27:52.484Z,34.31
2022-09-24T15:30:23.583Z,33.34
2022-09-24T15:32:53.696Z,31.59
2022-09-24T15:35:23.489Z,34.73
2022-09-24T15:37:53.457Z,30.25
2022-09-24T15:40:26.953Z,34.48
2022-09-24T15:42:57.421Z,30.57
2022-09-24T15:45:27.620Z,30.31
2022-09-24T15:47:57.298Z,33.02
2022-09-24T15:50:27.544Z,32.90
2022-09-24T15:53:02.306Z,35.44
2022-09-24T15:55:32.729Z,30.48
2022-09-24T15:58:03.153Z,32.32
2022-09-24T16:00:32.881Z,30.25
2022-09-24T16:03:03.239Z,30.44
2022-09-24T16:05:32.999Z,30.45
2022-09-24T16:08:03.730Z,29.67
2022-09-24T16:10:35.677Z,32.96
2022-09-24T16:13:08.165Z,27.96
2022-09-24T16:15:40.305Z,30.18
2022-09-24T16:18:15.845Z,29.16
2022-09-24T16:20:47.529Z,31.37
2022-09-24T16:23:19.272Z,32.71
2022-09-24T16:26:00.843Z,32.37
2022-09-24T16:28:32.772Z,27.07
2022-09-24T16:31:08.750Z,28.88
2022-09-24T16:33:40.180Z,28.32
2022-09-24T16:36:10.875Z,28.78
2022-09-24T16:38:41.661Z,34.50
2022-09-24T16:41:12.198Z,28.31
2022-09-24T16:43:42.508Z,32.61
2022-09-24T16:46:16.409Z,32.28
2022-09-24T16:48:53.176Z,29.55
2022-09-24T16:51:23.343Z,32.10
2022-09-24T16:53:59.743Z,32.08
2022-09-24T16:56:30.158Z,36.44
2022-09-24T16:59:00.222Z,30.48
2022-09-24T17:01:30.075Z,30.65
2022-09-24T17:04:00.900Z,30.16
2022-09-24T17:06:32.470Z,30.46
2022-09-24T17:09:21.362Z,34.19
2022-09-24T17:11:51.883Z,28.96
2022-09-24T17:14:23.223Z,29.65
2022-09-24T17:16:53.446Z,29.81
2022-09-24T17:19:23.481Z,30.56
2022-09-24T17:21:54.569Z,31.61
2022-09-24T17:24:24.913Z,30.03
2022-09-24T17:26:55.512Z,32.05
2022-09-24T17:29:31.759Z,30.21
2022-09-24T17:32:02.401Z,32.20
2022-09-24T17:34:32.181Z,31.91
2022-09-24T17:37:02.168Z,35.08
2022-09-24T17:39:33.974Z,33.95
2022-09-24T17:42:05.372Z,32.16
2022-09-24T17:44:36.453Z,31.72
2022-09-24T17:47:09.386Z,29.83
2022-09-24T17:49:40.200Z,30.40
2022-09-24T17:52:10.861Z,27.93
2022-09-24T17:54:41.163Z,31.08
2022-09-24T17:57:10.955Z,33.86
2022-09-24T17:59:41.053Z,30.77
2022-09-24T18:02:12.343Z,34.44
2022-09-24T18:04:42.989Z,33.97
2022-09-24T18:07:13.033Z,30.37
2022-09-24T18:09:42.847Z,33.75
2022-09-24T18:12:17.230Z,32.31
2022-09-24T18:14:47.728Z,31.99
2022-09-24T18:17:18.552Z,33.60
2022-09-24T18:19:48.426Z,32.26
2022-09-24T18:22:19.453Z,34.47
2022-09-24T18:24:50.148Z,34.33
2022-09-24T18:27:21.084Z,32.08
2022-09-24T18:29:51.669Z,33.70
2022-09-24T18:32:21.539Z,34.68
2022-09-24T18:34:51.507Z,35.21
2022-09-24T18:37:21.290Z,34.60
2022-09-24T18:39:52.234Z,34.83
2022-09-24T18:42:22.416Z,33.09
2022-09-24T18:44:52.803Z,33.24
2022-09-24T18:47:22.561Z,30.32
2022-09-24T18:49:52.770Z,35.08
2022-09-24T18:52:22.483Z,34.91
2022-09-24T18:54:53.129Z,35.14
2022-09-24T18:57:23.222Z,39.71
2022-09-24T18:59:52.901Z,41.93
2022-09-24T19:02:26.274Z,41.33
2022-09-24T19:04:56.488Z,39.41
2022-09-24T19:07:26.157Z,41.21
2022-09-24T19:09:56.052Z,36.82
2022-09-24T19:12:27.156Z,34.76
2022-09-24T19:14:58.811Z,34.21
2022-09-24T19:17:28.810Z,33.30
2022-09-24T19:20:00.468Z,33.41
2022-09-24T19:22:30.561Z,32.76
2022-09-24T19:25:00.237Z,33.27
2022-09-24T19:27:30.216Z,34.13
2022-09-24T19:30:00.392Z,33.82
2022-09-24T19:32:30.352Z,33.79
2022-09-24T19:35:04.466Z,33.83
2022-09-24T19:37:40.575Z,34.02
2022-09-24T19:40:34.231Z,33.60
2022-09-24T19:43:11.340Z,33.59
2022-09-24T19:45:41.437Z,33.65
2022-09-24T19:48:12.182Z,33.99
2022-09-24T19:50:42.297Z,34.78
2022-09-24T19:53:11.989Z,34.91
2022-09-24T19:55:42.260Z,34.65
2022-09-24T19:58:12.485Z,34.64
2022-09-24T20:00:42.227Z,35.60
2022-09-24T20:03:15.065Z,36.63
2022-09-24T20:05:45.806Z,44.78
2022-09-24T20:08:16.126Z,49.58
2022-09-24T20:10:45.904Z,46.57
2022-09-24T20:13:15.672Z,46.64
2022-09-24T20:15:45.479Z,48.79
2022-09-24T20:18:16.007Z,48.67
2022-09-24T20:20:45.980Z,44.60
2022-09-24T20:23:15.719Z,50.41
2022-09-24T20:26:09.836Z,52.35
2022-09-24T20:28:41.469Z,52.97
2022-09-24T20:31:17.246Z,53.48
2022-09-24T20:33:47.470Z,50.05
2022-09-24T20:36:21.936Z,50.08
2022-09-24T20:38:57.587Z,51.57
2022-09-24T20:41:28.077Z,54.23
2022-09-24T20:43:58.978Z,56.19
2022-09-24T20:46:30.313Z,57.34
2022-09-24T20:49:01.965Z,59.95
2022-09-24T20:51:34.627Z,59.32
2022-09-24T20:54:04.966Z,60.58
2022-09-24T20:56:34.914Z,61.33
2022-09-24T20:59:05.440Z,60.82
2022-09-24T21:01:35.418Z,62.61
2022-09-24T21:04:05.517Z,63.45
2022-09-24T21:06:37.663Z,63.43
2022-09-24T21:09:07.810Z,64.55
2022-09-24T21:11:37.810Z,66.19
2022-09-24T21:14:11.421Z,65.74
2022-09-24T21:16:41.670Z,66.69
2022-09-24T21:19:13.964Z,67.43
2022-09-24T21:21:44.401Z,69.56
2022-09-24T21:24:16.711Z,69.29
2022-09-24T21:26:47.716Z,70.30
2022-09-24T21:29:23.815Z,70.57
2022-09-24T21:31:53.965Z,71.04
2022-09-24T21:34:23.649Z,70.68
2022-09-24T21:36:54.221Z,70.88
2022-09-24T21:39:28.535Z,71.50
2022-09-24T21:42:01.367Z,70.60
2022-09-24T21:44:35.010Z,70.55
2022-09-24T21:47:05.861Z,71.14
2022-09-24T21:49:40.281Z,70.25
2022-09-24T21:52:10.128Z,71.08
2022-09-24T21:54:40.790Z,70.47
2022-09-24T21:57:10.369Z,71.22
2022-09-24T21:59:57.749Z,69.43
2022-09-24T22:02:27.855Z,70.29
2022-09-24T22:04:57.783Z,71.01
2022-09-24T22:07:27.656Z,71.64
2022-09-24T22:09:57.066Z,70.59
2022-09-24T22:12:27.154Z,73.62
2022-09-24T22:14:56.882Z,74.97
2022-09-24T22:17:26.125Z,76.11
2022-09-24T22:19:56.237Z,77.36
2022-09-24T22:22:26.832Z,78.13
2022-09-24T22:24:56.870Z,78.63
2022-09-24T22:27:26.634Z,79.51
2022-09-24T22:29:55.854Z,79.56
2022-09-24T22:32:25.479Z,80.98
2022-09-24T22:35:13.244Z,80.83
2022-09-24T22:37:43.090Z,82.02
2022-09-24T22:40:12.644Z,82.06
2022-09-24T22:42:42.246Z,82.52
2022-09-24T22:45:12.355Z,83.23
2022-09-24T22:47:42.045Z,83.56
2022-09-24T22:50:12.028Z,83.86
2022-09-24T22:52:41.898Z,84.14
2022-09-24T22:55:11.637Z,83.34
2022-09-24T22:57:40.928Z,77.36
2022-09-24T23:00:11.108Z,83.34
2022-09-24T23:02:40.765Z,83.13
2022-09-24T23:05:11.051Z,84.42
2022-09-24T23:07:41.166Z,84.28
2022-09-24T23:10:11.543Z,83.68
2022-09-24T23:12:41.382Z,83.67
2022-09-24T23:15:11.345Z,84.44
2022-09-24T23:17:41.077Z,85.13
2022-09-24T23:20:10.642Z,78.66
2022-09-24T23:22:40.318Z,84.50
2022-09-24T23:25:09.842Z,80.91
2022-09-24T23:27:39.486Z,84.60
2022-09-24T23:30:08.946Z,80.32
2022-09-24T23:32:38.539Z,85.52
2022-09-24T23:35:08.564Z,86.32
2022-09-24T23:37:38.237Z,85.94
2022-09-24T23:40:08.540Z,85.79
2022-09-24T23:42:38.267Z,86.05
2022-09-24T23:45:09.073Z,86.03
2022-09-24T23:47:39.197Z,86.21
2022-09-24T23:50:09.565Z,86.44
2022-09-24T23:52:39.245Z,86.29
2022-09-24T23:55:08.575Z,83.97
2022-09-24T23:57:39.130Z,85.82
